Terminal Aerodrome Forecast
Issued by NWS

Home | Current Version | Previous Version | Graphics & Text | Print | Product List | Glossary On
Versions: 1 2 3 4 5 6 7 8 9 10 11 12 13 14
000
FTUS43 KOAX 201134
TAFCDR
TAF
KCDR 201134Z 2012/2112 26005KT P6SM BKN250
     FM201900 29009KT P6SM BKN100 OVC200
     FM210000 30010KT P6SM VCSH OVC050
     FM210300 26008KT P6SM OVC100=

USA.gov is the U.S. government's official web portal to all federal, state and local government web resources and services.